Time;durP1;ratioP1;P1;durP2;ratioP2;P2;SDS_P1;SDS_P2;PMS_P1;PMS_P2;Temp;Humidity;BMP_temperature;BMP_pressure;BME280_temperature;BME280_humidity;BME280_pressure;Samples;Min_cycle;Max_cycle;Signal;HPM_P1;HPM_P2
2022/11/25 00:01:11;;;;;;;5.63;3.13;;;;;;;10.05;51.16;101012.00;5004196;28;20400;-76
2022/11/25 00:03:37;;;;;;;6.80;3.20;;;;;;;9.99;50.92;101017.94;5005283;28;20403;-75
2022/11/25 00:06:13;;;;;;;6.22;3.38;;;;;;;10.01;50.99;101013.28;5002509;28;20402;-78
2022/11/25 00:08:40;;;;;;;5.72;2.88;;;;;;;9.91;51.12;101018.72;5004393;28;20412;-78
2022/11/25 00:11:06;;;;;;;4.57;2.85;;;;;;;9.99;51.15;101020.56;5002042;28;20417;-77
2022/11/25 00:13:32;;;;;;;5.65;3.13;;;;;;;10.09;50.96;101023.94;5009692;28;20396;-77
2022/11/25 00:16:07;;;;;;;4.50;2.95;;;;;;;10.04;50.84;101021.75;5001436;28;20457;-76
2022/11/25 00:18:32;;;;;;;7.47;3.08;;;;;;;10.02;50.72;101025.56;5013820;28;20481;-76
2022/11/25 00:20:58;;;;;;;5.97;3.03;;;;;;;10.07;50.89;101028.56;5000627;28;20409;-77
2022/11/25 00:23:24;;;;;;;4.32;3.03;;;;;;;10.07;50.39;101031.22;5007648;28;20818;-76
2022/11/25 00:25:49;;;;;;;5.82;3.20;;;;;;;9.97;50.58;101031.31;5002666;28;20404;-77
2022/11/25 00:28:17;;;;;;;5.27;3.10;;;;;;;9.94;50.73;101027.19;4996239;28;20390;-77
2022/11/25 00:30:42;;;;;;;5.07;3.20;;;;;;;10.03;50.30;101020.13;4992581;28;20407;-77
2022/11/25 00:33:08;;;;;;;6.85;3.10;;;;;;;10.03;50.12;101021.91;4993842;28;20770;-77
2022/11/25 00:35:34;;;;;;;6.67;3.10;;;;;;;9.92;50.57;101015.06;4994867;28;20459;-76
2022/11/25 00:37:59;;;;;;;6.13;2.70;;;;;;;9.88;50.57;101019.03;5004774;28;20435;-76
2022/11/25 00:40:25;;;;;;;6.40;2.80;;;;;;;9.86;50.25;101015.72;4999767;28;22200;-76
2022/11/25 00:45:35;;;;;;;6.47;2.85;;;;;;;9.89;50.62;101013.59;4990334;28;20403;-76
2022/11/25 00:48:00;;;;;;;4.70;2.35;;;;;;;9.89;50.20;101004.81;4997625;28;20389;-77
2022/11/25 00:50:25;;;;;;;4.83;2.63;;;;;;;9.87;50.06;101020.84;4997101;28;20407;-76
2022/11/25 00:52:51;;;;;;;7.27;2.80;;;;;;;9.85;50.20;101017.53;4999114;28;20899;-76
2022/11/25 00:55:16;;;;;;;6.93;2.80;;;;;;;9.90;50.09;101019.69;4999243;28;20403;-76
2022/11/25 00:57:42;;;;;;;5.13;2.37;;;;;;;9.83;50.27;101010.72;5009936;28;20403;-76
2022/11/25 01:00:09;;;;;;;4.38;2.17;;;;;;;9.87;49.80;101015.56;4997938;28;20475;-76
2022/11/25 01:02:35;;;;;;;4.50;2.40;;;;;;;9.86;50.05;101016.53;4991518;28;20469;-76
2022/11/25 01:05:00;;;;;;;4.68;2.60;;;;;;;9.89;49.98;101000.34;5003347;28;20396;-77
2022/11/25 01:07:26;;;;;;;6.03;2.40;;;;;;;9.89;49.90;101008.28;4992568;28;20397;-76
2022/11/25 01:09:51;;;;;;;4.57;2.23;;;;;;;9.88;49.88;101017.19;5000027;28;20412;-76
2022/11/25 01:12:17;;;;;;;4.68;2.10;;;;;;;9.86;50.01;101003.31;5007524;28;20475;-76
2022/11/25 01:14:42;;;;;;;4.07;2.30;;;;;;;9.87;49.71;101020.03;4991513;28;20580;-76
2022/11/25 01:17:08;;;;;;;6.33;2.57;;;;;;;9.76;49.83;101010.53;4990548;28;20385;-76
2022/11/25 01:19:38;;;;;;;5.53;2.53;;;;;;;9.82;50.16;101009.91;4996208;28;20586;-76
2022/11/25 01:22:04;;;;;;;4.20;2.17;;;;;;;9.72;49.85;101006.53;5009852;28;20974;-76
2022/11/25 01:24:30;;;;;;;4.88;2.30;;;;;;;9.75;49.64;101020.28;5008311;28;20418;-76
2022/11/25 01:26:55;;;;;;;4.53;2.10;;;;;;;9.72;50.25;101023.28;4997660;28;20752;-76
2022/11/25 01:29:21;;;;;;;4.50;1.95;;;;;;;9.66;50.10;101015.94;5005895;28;20403;-77
2022/11/25 01:31:47;;;;;;;4.77;2.10;;;;;;;9.65;49.78;101031.97;5012722;28;20427;-76
2022/11/25 01:34:16;;;;;;;4.13;2.03;;;;;;;9.60;50.13;101019.22;4999470;28;20402;-76
2022/11/25 01:36:42;;;;;;;5.53;2.30;;;;;;;9.55;50.36;101021.50;4999608;28;20958;-76
2022/11/25 01:39:12;;;;;;;5.43;2.10;;;;;;;9.51;50.20;101014.88;5002261;28;20500;-76
2022/11/25 01:41:37;;;;;;;5.13;2.10;;;;;;;9.33;50.84;101028.13;5006735;28;20640;-76
2022/11/25 01:44:16;;;;;;;4.40;2.10;;;;;;;9.25;51.05;101028.06;4994417;28;20413;-76
2022/11/25 01:46:51;;;;;;;6.60;2.40;;;;;;;9.20;50.95;101020.59;4996973;28;20448;-76
2022/11/25 01:49:19;;;;;;;3.75;2.13;;;;;;;9.16;51.19;101014.78;5000862;28;20400;-76
2022/11/25 01:51:57;;;;;;;4.05;2.10;;;;;;;9.10;51.01;101027.78;4993384;28;20385;-76
2022/11/25 01:54:28;;;;;;;3.17;2.17;;;;;;;9.13;51.27;101025.66;4994427;28;20464;-76
2022/11/25 01:56:58;;;;;;;3.10;1.90;;;;;;;9.10;51.46;101027.78;4993607;28;20408;-76
2022/11/25 01:59:24;;;;;;;4.40;2.30;;;;;;;9.10;51.83;101035.72;4994007;28;20413;-76
2022/11/25 02:01:50;;;;;;;5.38;2.25;;;;;;;9.11;51.48;101034.72;4993704;28;20405;-76
2022/11/25 02:04:17;;;;;;;4.33;2.13;;;;;;;9.05;51.36;101038.81;5002821;28;20403;-76
2022/11/25 02:06:49;;;;;;;4.25;2.15;;;;;;;9.01;52.16;101034.81;5000249;28;20413;-76
2022/11/25 02:09:17;;;;;;;4.78;1.95;;;;;;;9.02;51.89;101033.84;4992392;28;20484;-76
2022/11/25 02:11:44;;;;;;;4.57;1.88;;;;;;;9.01;51.68;101034.00;5003304;28;20902;-76
2022/11/25 02:14:12;;;;;;;4.03;2.00;;;;;;;8.98;51.92;101022.72;5003210;28;20399;-76
2022/11/25 02:16:38;;;;;;;5.63;2.20;;;;;;;8.92;51.73;101025.16;5000606;28;20445;-76
2022/11/25 02:19:07;;;;;;;5.93;2.53;;;;;;;8.89;52.02;101020.16;5003025;28;20442;-76
2022/11/25 02:21:42;;;;;;;4.45;1.98;;;;;;;8.88;51.23;101032.53;5000188;28;20401;-76
2022/11/25 02:24:14;;;;;;;5.25;2.92;;;;;;;8.96;51.14;101022.03;5003681;28;20500;-77
2022/11/25 02:26:39;;;;;;;4.18;2.20;;;;;;;8.80;51.53;101017.44;5008120;28;20820;-76
2022/11/25 02:29:05;;;;;;;5.23;2.50;;;;;;;8.79;51.79;101030.81;5012935;28;20446;-75
2022/11/25 02:31:30;;;;;;;4.83;2.13;;;;;;;8.84;51.69;101027.69;4999717;28;20400;-76
2022/11/25 02:33:56;;;;;;;4.53;2.22;;;;;;;8.84;51.71;101038.28;5011155;28;20392;-76
2022/11/25 02:36:22;;;;;;;6.03;2.30;;;;;;;8.74;51.79;101023.31;4995162;28;20831;-76
2022/11/25 02:38:56;;;;;;;4.40;1.98;;;;;;;8.59;52.00;101028.31;4999090;28;20407;-76
2022/11/25 02:41:30;;;;;;;4.07;2.05;;;;;;;8.75;51.34;101029.44;5011973;28;20376;-76
2022/11/25 02:43:55;;;;;;;2.88;1.70;;;;;;;8.76;51.70;101024.00;5023522;28;20403;-77
2022/11/25 02:46:24;;;;;;;6.32;2.22;;;;;;;8.75;51.51;101032.94;5027840;28;20390;-76
2022/11/25 02:48:51;;;;;;;5.25;2.03;;;;;;;8.77;51.62;101040.72;5019091;28;20401;-77
2022/11/25 02:51:19;;;;;;;4.80;2.10;;;;;;;8.81;50.81;101031.50;5023335;28;20394;-76
2022/11/25 02:53:45;;;;;;;6.00;1.70;;;;;;;8.59;51.18;101043.34;5008158;28;20405;-76
2022/11/25 02:56:13;;;;;;;4.32;2.13;;;;;;;8.72;51.59;101041.16;5001355;28;20390;-76
2022/11/25 02:58:39;;;;;;;5.65;2.22;;;;;;;8.66;51.48;101040.91;5002824;28;20420;-77
2022/11/25 03:01:05;;;;;;;5.25;2.30;;;;;;;8.79;51.31;101049.31;4993137;28;20408;-76
2022/11/25 03:03:30;;;;;;;5.07;2.05;;;;;;;8.73;51.29;101042.81;4997603;28;20390;-76
2022/11/25 03:05:56;;;;;;;4.35;2.13;;;;;;;8.74;51.06;101041.00;4996256;28;20389;-76
2022/11/25 03:08:21;;;;;;;5.23;2.60;;;;;;;8.80;51.23;101046.53;5003166;28;20762;-76
2022/11/25 03:10:47;;;;;;;4.73;1.90;;;;;;;8.75;51.15;101048.78;4998437;28;20408;-77
2022/11/25 03:13:12;;;;;;;5.60;2.35;;;;;;;8.73;51.29;101040.19;4999585;28;20393;-77
2022/11/25 03:15:38;;;;;;;5.93;2.50;;;;;;;8.68;51.18;101047.72;4998035;28;20479;-76
2022/11/25 03:18:04;;;;;;;4.20;2.13;;;;;;;8.57;51.25;101050.56;4995453;28;20413;-76
2022/11/25 03:20:30;;;;;;;5.32;2.17;;;;;;;8.61;51.89;101055.41;5001161;28;20577;-76
2022/11/25 03:22:55;;;;;;;5.63;2.30;;;;;;;8.67;51.73;101048.69;5004698;28;20839;-77
2022/11/25 03:25:21;;;;;;;5.77;2.60;;;;;;;8.72;51.23;101061.47;5008328;28;20467;-76
2022/11/25 03:27:47;;;;;;;5.07;2.45;;;;;;;8.68;51.40;101057.44;5002308;28;20402;-76
2022/11/25 03:30:16;;;;;;;4.77;2.43;;;;;;;8.60;51.64;101066.94;5000055;28;20424;-76
2022/11/25 03:32:42;;;;;;;5.00;2.70;;;;;;;8.57;51.52;101066.41;4992014;28;20398;-76
2022/11/25 03:35:08;;;;;;;6.10;2.72;;;;;;;8.61;51.53;101073.09;4992229;28;20401;-76
2022/11/25 03:37:34;;;;;;;5.78;2.83;;;;;;;8.73;51.06;101066.59;4995031;28;20402;-76
2022/11/25 03:39:59;;;;;;;6.13;2.80;;;;;;;8.63;51.44;101065.84;4995299;28;20404;-76
2022/11/25 03:42:25;;;;;;;5.77;3.00;;;;;;;8.65;51.46;101074.44;5006651;28;20863;-77
2022/11/25 03:44:50;;;;;;;5.00;2.50;;;;;;;8.60;51.60;101088.09;5004772;28;20471;-76
2022/11/25 03:47:15;;;;;;;4.67;2.60;;;;;;;8.64;51.44;101095.72;5002900;28;20773;-77
2022/11/25 03:49:41;;;;;;;5.00;2.33;;;;;;;8.58;51.52;101092.69;5001805;28;20818;-76
2022/11/25 03:52:06;;;;;;;5.60;2.80;;;;;;;8.54;50.96;101088.69;5005674;28;20404;-76
2022/11/25 03:54:32;;;;;;;6.53;2.90;;;;;;;8.55;51.13;101095.66;4999947;28;20407;-76
2022/11/25 03:56:57;;;;;;;3.90;2.13;;;;;;;8.50;51.94;101108.47;5005422;28;20412;-76
2022/11/25 03:59:23;;;;;;;3.87;2.67;;;;;;;8.44;51.42;101103.75;4997374;28;20433;-76
2022/11/25 04:01:48;;;;;;;4.03;2.80;;;;;;;8.65;51.08;101107.97;4996969;28;20415;-76
2022/11/25 04:04:14;;;;;;;6.55;3.15;;;;;;;8.43;51.33;101099.47;5008195;28;20395;-76
2022/11/25 04:06:39;;;;;;;3.87;2.73;;;;;;;8.41;51.67;101122.53;5003209;28;20391;-76
2022/11/25 04:09:06;;;;;;;7.63;3.83;;;;;;;8.43;51.74;101120.59;4994903;28;20498;-76
2022/11/25 04:14:16;;;;;;;5.50;3.10;;;;;;;8.47;51.38;101127.25;5001877;28;20481;-75
2022/11/25 04:16:42;;;;;;;4.90;3.00;;;;;;;8.32;51.55;101126.00;4995387;28;20781;-75
2022/11/25 04:19:07;;;;;;;5.13;3.00;;;;;;;8.41;51.54;101123.34;4998384;28;20901;-75
2022/11/25 04:21:33;;;;;;;5.25;2.78;;;;;;;8.36;51.86;101133.50;4991406;28;20413;-75
2022/11/25 04:23:58;;;;;;;5.00;3.20;;;;;;;8.35;51.68;101131.84;5008357;28;20392;-75
2022/11/25 04:26:24;;;;;;;5.80;3.80;;;;;;;8.42;51.40;101143.50;5008138;28;20399;-76
2022/11/25 04:28:49;;;;;;;5.28;3.30;;;;;;;8.33;51.46;101138.25;5004072;28;20457;-75
2022/11/25 04:31:15;;;;;;;4.40;3.10;;;;;;;8.15;51.85;101152.19;4997395;28;20548;-75
2022/11/25 04:33:40;;;;;;;6.37;3.70;;;;;;;8.29;51.57;101144.81;4998769;28;20392;-75
2022/11/25 04:36:06;;;;;;;6.75;3.95;;;;;;;8.21;51.65;101161.34;5003829;28;20869;-75
2022/11/25 04:38:31;;;;;;;4.68;3.05;;;;;;;8.09;52.31;101160.69;5003354;28;20741;-75
2022/11/25 04:40:57;;;;;;;6.47;3.73;;;;;;;8.02;52.15;101165.72;4996023;28;20396;-75
2022/11/25 04:43:23;;;;;;;6.17;3.83;;;;;;;8.12;52.05;101176.28;4991774;28;20455;-75
2022/11/25 04:45:48;;;;;;;7.07;3.90;;;;;;;8.04;51.96;101178.78;4991353;28;20857;-76
2022/11/25 04:48:14;;;;;;;7.68;4.43;;;;;;;8.07;51.66;101175.00;4993877;28;20394;-76
2022/11/25 04:50:39;;;;;;;9.63;3.83;;;;;;;8.26;51.23;101180.25;4999741;28;20926;-76
2022/11/25 04:53:05;;;;;;;5.50;3.90;;;;;;;8.27;51.17;101179.28;5006705;28;20404;-75
2022/11/25 04:55:30;;;;;;;6.97;4.00;;;;;;;8.25;51.07;101194.44;5009955;28;20388;-75
2022/11/25 04:57:56;;;;;;;6.60;3.87;;;;;;;8.12;51.55;101194.75;4999834;28;20414;-75
2022/11/25 05:00:21;;;;;;;5.87;3.30;;;;;;;8.08;51.89;101192.53;5003056;28;20435;-75
2022/11/25 05:02:47;;;;;;;5.80;3.33;;;;;;;8.07;51.29;101202.25;5004366;28;20857;-76
2022/11/25 05:05:13;;;;;;;4.75;3.58;;;;;;;8.12;51.57;101217.66;5004656;28;20390;-76
2022/11/25 05:07:38;;;;;;;8.50;4.80;;;;;;;8.33;50.93;101215.69;4995315;28;20761;-76
2022/11/25 05:10:05;;;;;;;7.17;4.50;;;;;;;8.47;50.99;101221.53;5001696;28;20496;-76
2022/11/25 05:12:30;;;;;;;8.48;5.00;;;;;;;8.54;50.59;101223.44;4997665;28;20405;-76
2022/11/25 05:14:56;;;;;;;8.40;6.47;;;;;;;8.56;50.47;101232.06;5007723;28;20400;-76
2022/11/25 05:17:31;;;;;;;6.03;4.10;;;;;;;8.53;50.26;101229.69;5001421;28;20904;-75
2022/11/25 05:19:57;;;;;;;7.78;5.47;;;;;;;8.57;50.28;101232.88;5002376;28;20420;-75
2022/11/25 05:22:28;;;;;;;10.50;6.53;;;;;;;8.57;50.34;101239.03;5004578;28;20417;-76
2022/11/25 05:24:54;;;;;;;13.35;7.30;;;;;;;8.55;50.12;101240.13;5017599;28;20402;-75
2022/11/25 05:27:20;;;;;;;16.55;8.73;;;;;;;8.62;50.18;101243.84;4999001;28;20424;-78
2022/11/25 05:29:46;;;;;;;10.10;6.57;;;;;;;8.54;50.18;101252.50;4996241;28;20403;-75
2022/11/25 05:32:12;;;;;;;6.80;4.28;;;;;;;8.40;50.32;101263.50;4997534;28;20389;-75
2022/11/25 05:34:38;;;;;;;7.32;3.95;;;;;;;8.19;50.52;101259.22;4997702;28;20415;-75
2022/11/25 05:37:04;;;;;;;5.07;3.55;;;;;;;8.19;50.80;101272.44;4998100;28;20401;-76
2022/11/25 05:39:29;;;;;;;6.30;3.85;;;;;;;8.27;50.50;101266.44;4997264;28;20839;-76
2022/11/25 05:41:55;;;;;;;7.83;4.37;;;;;;;8.28;50.26;101275.19;4991263;28;20386;-76
2022/11/25 05:44:20;;;;;;;5.70;3.60;;;;;;;8.01;50.52;101271.44;4999222;28;20383;-75
2022/11/25 05:46:47;;;;;;;5.72;3.60;;;;;;;7.99;50.93;101279.50;4996759;28;20396;-75
2022/11/25 05:49:13;;;;;;;5.05;3.67;;;;;;;7.94;50.95;101280.91;5005367;28;20400;-76
2022/11/25 05:51:39;;;;;;;7.47;4.00;;;;;;;7.92;50.81;101291.59;4997003;28;20492;-75
2022/11/25 05:54:05;;;;;;;7.73;4.07;;;;;;;7.97;50.81;101291.19;4993680;28;20473;-76
2022/11/25 05:56:30;;;;;;;6.18;3.78;;;;;;;7.90;51.09;101305.91;4994203;28;20394;-76
2022/11/25 05:58:58;;;;;;;7.45;4.70;;;;;;;8.15;50.51;101310.63;5001170;28;20461;-76
2022/11/25 06:01:23;;;;;;;8.88;4.80;;;;;;;8.27;50.16;101316.63;4991291;28;20888;-75
2022/11/25 06:03:49;;;;;;;11.77;6.57;;;;;;;8.36;49.92;101326.34;4994582;28;20401;-76
2022/11/25 06:06:14;;;;;;;21.17;12.50;;;;;;;8.39;49.84;101320.78;5000827;28;20404;-74
2022/11/25 06:08:40;;;;;;;24.42;14.43;;;;;;;8.39;49.75;101328.72;5003605;28;20455;-75
2022/11/25 06:11:10;;;;;;;19.00;10.87;;;;;;;8.25;50.03;101323.88;5001073;28;20790;-75
2022/11/25 06:13:37;;;;;;;16.00;9.55;;;;;;;8.27;49.89;101323.72;4999420;28;20393;-76
2022/11/25 06:16:08;;;;;;;11.30;7.57;;;;;;;8.19;50.24;101324.41;4999389;28;20427;-75
2022/11/25 06:18:35;;;;;;;11.30;6.95;;;;;;;8.17;50.30;101329.00;5010565;28;21828;-75
2022/11/25 06:21:00;;;;;;;9.27;5.78;;;;;;;8.10;50.51;101341.09;5004739;28;20470;-74
2022/11/25 06:23:26;;;;;;;8.23;5.50;;;;;;;8.06;51.06;101337.88;5000725;28;20457;-77
2022/11/25 06:25:51;;;;;;;14.95;6.45;;;;;;;8.18;51.01;101347.34;4995904;28;20401;-75
2022/11/25 06:28:17;;;;;;;9.43;5.80;;;;;;;8.35;50.24;101337.88;5003850;28;20454;-75
2022/11/25 06:30:43;;;;;;;10.23;6.63;;;;;;;8.46;50.76;101344.84;5000346;28;20442;-76
2022/11/25 06:33:08;;;;;;;9.37;6.70;;;;;;;8.55;50.98;101346.69;5000901;28;20498;-75
2022/11/25 06:35:34;;;;;;;9.35;6.15;;;;;;;8.64;52.35;101350.25;4999913;28;20420;-75
2022/11/25 06:38:00;;;;;;;7.45;5.45;;;;;;;8.60;51.20;101351.53;5002091;28;20412;-77
2022/11/25 06:40:25;;;;;;;13.30;8.13;;;;;;;8.57;51.21;101351.78;5004603;28;20407;-77
2022/11/25 06:42:51;;;;;;;8.40;5.80;;;;;;;8.67;51.50;101354.44;5000106;28;20448;-76
2022/11/25 06:45:16;;;;;;;10.17;5.90;;;;;;;8.59;51.05;101363.09;5004443;28;20402;-75
2022/11/25 06:47:42;;;;;;;9.05;6.43;;;;;;;8.50;51.03;101361.25;5006522;28;20941;-76
2022/11/25 06:50:08;;;;;;;7.60;5.30;;;;;;;8.41;51.14;101362.94;4994883;28;20826;-76
2022/11/25 06:52:34;;;;;;;7.57;4.75;;;;;;;8.36;51.11;101371.25;4998853;28;20476;-76
2022/11/25 06:54:59;;;;;;;7.45;5.00;;;;;;;8.37;51.07;101375.59;4994951;28;20414;-75
2022/11/25 06:57:25;;;;;;;13.43;6.23;;;;;;;8.53;51.21;101380.31;5012883;28;20402;-76
2022/11/25 06:59:50;;;;;;;7.50;5.10;;;;;;;8.53;50.68;101380.31;5001686;28;20481;-76
2022/11/25 07:02:16;;;;;;;8.13;5.50;;;;;;;8.53;51.36;101390.06;5007681;28;20400;-76
2022/11/25 07:04:42;;;;;;;12.73;7.00;;;;;;;8.58;50.80;101379.91;5003168;28;20421;-76
2022/11/25 07:07:07;;;;;;;8.17;5.23;;;;;;;8.60;51.06;101394.63;5005835;28;20740;-76
2022/11/25 07:09:33;;;;;;;7.40;5.23;;;;;;;8.78;50.49;101389.47;5005039;28;20814;-77
2022/11/25 07:11:58;;;;;;;9.13;5.13;;;;;;;8.78;50.84;101392.09;5003402;28;20503;-75
2022/11/25 07:14:24;;;;;;;8.15;5.72;;;;;;;8.88;50.17;101389.47;5011291;28;20470;-77
2022/11/25 07:16:49;;;;;;;9.87;6.30;;;;;;;9.02;50.21;101398.78;4995836;28;20420;-77
2022/11/25 07:19:17;;;;;;;9.27;5.10;;;;;;;8.93;50.74;101389.88;4993703;28;20484;-77
2022/11/25 07:21:44;;;;;;;8.40;5.28;;;;;;;8.96;50.63;101400.16;4994226;28;20475;-75
2022/11/25 07:24:12;;;;;;;8.10;5.13;;;;;;;9.04;50.33;101404.75;4998571;28;20406;-77
2022/11/25 07:26:39;;;;;;;12.05;7.40;;;;;;;9.13;50.27;101397.75;5000902;28;20963;-75
2022/11/25 07:29:11;;;;;;;9.98;6.53;;;;;;;9.29;49.85;101400.63;5000942;28;20415;-76
2022/11/25 07:31:44;;;;;;;9.18;5.40;;;;;;;9.21;49.65;101402.34;5009042;28;20416;-77
2022/11/25 07:34:13;;;;;;;9.20;6.38;;;;;;;9.30;49.71;101410.22;5008436;28;21052;-76
2022/11/25 07:36:40;;;;;;;9.52;5.25;;;;;;;9.26;49.52;101419.44;5001660;28;20406;-77
2022/11/25 07:39:10;;;;;;;9.02;5.43;;;;;;;9.36;49.26;101408.81;4993886;28;20453;-78
2022/11/25 07:41:36;;;;;;;8.23;4.83;;;;;;;9.41;49.84;101405.75;4998179;28;20492;-77
2022/11/25 07:44:04;;;;;;;6.75;4.28;;;;;;;9.34;49.99;101406.31;4993490;28;20418;-76
2022/11/25 07:46:31;;;;;;;5.47;3.72;;;;;;;9.23;50.10;101418.88;5000845;28;20397;-75
2022/11/25 07:48:59;;;;;;;7.20;5.15;;;;;;;9.39;49.52;101413.81;5003721;28;20404;-76
2022/11/25 07:51:28;;;;;;;6.72;4.05;;;;;;;9.25;49.93;101414.28;5001964;28;20406;-76
2022/11/25 07:53:55;;;;;;;8.20;4.97;;;;;;;9.46;49.68;101419.38;4992976;28;20401;-75
2022/11/25 07:56:21;;;;;;;7.63;4.10;;;;;;;9.39;49.37;101416.47;4995348;28;20454;-76
2022/11/25 07:58:47;;;;;;;6.72;3.58;;;;;;;9.42;49.12;101415.31;5001919;28;20868;-76
2022/11/25 08:01:14;;;;;;;9.27;5.40;;;;;;;9.64;49.08;101424.72;5004015;28;20442;-76
2022/11/25 08:03:41;;;;;;;7.13;4.75;;;;;;;9.77;49.03;101430.50;5007337;28;20380;-78
2022/11/25 08:06:09;;;;;;;5.10;3.80;;;;;;;9.57;49.16;101417.34;5003604;28;20380;-77
2022/11/25 08:08:36;;;;;;;6.28;4.13;;;;;;;9.68;48.93;101420.81;4998418;28;20424;-76
2022/11/25 08:11:10;;;;;;;7.07;4.72;;;;;;;9.46;49.38;101414.09;4999988;28;20410;-76
2022/11/25 08:13:37;;;;;;;8.02;5.03;;;;;;;9.79;48.71;101433.00;4999328;28;20404;-76
2022/11/25 08:16:03;;;;;;;7.03;4.63;;;;;;;9.77;48.38;101422.56;4998808;28;20417;-77
2022/11/25 08:18:29;;;;;;;8.38;4.75;;;;;;;9.94;47.86;101427.09;5000932;28;20404;-77
2022/11/25 08:21:05;;;;;;;9.23;5.13;;;;;;;10.19;47.27;101419.41;4998301;28;20428;-77
2022/11/25 08:23:32;;;;;;;6.68;4.45;;;;;;;10.05;47.27;101420.75;5000332;28;20728;-76
2022/11/25 08:26:03;;;;;;;6.82;4.50;;;;;;;10.19;47.51;101423.84;5002491;28;20389;-76
2022/11/25 08:28:28;;;;;;;6.25;4.50;;;;;;;10.15;47.28;101425.97;4996153;28;20394;-77
2022/11/25 08:31:04;;;;;;;6.70;4.40;;;;;;;10.26;47.24;101427.56;5006451;28;20446;-76
2022/11/25 08:33:30;;;;;;;5.40;4.13;;;;;;;10.20;47.11;101436.97;4997052;28;20392;-77
2022/11/25 08:35:56;;;;;;;6.20;3.67;;;;;;;9.92;47.40;101439.66;4998413;28;20758;-76
2022/11/25 08:38:22;;;;;;;5.97;3.50;;;;;;;10.06;46.79;101426.88;4995691;28;20413;-76
2022/11/25 08:40:47;;;;;;;8.60;4.97;;;;;;;10.16;47.05;101435.59;4995052;28;20417;-77
2022/11/25 08:43:13;;;;;;;8.63;5.33;;;;;;;10.37;46.79;101432.69;4995992;28;20904;-75
2022/11/25 08:46:35;;;;;;;6.47;3.50;;;;;;;10.35;47.15;101432.00;5060444;28;20384;-76
2022/11/25 08:49:01;;;;;;;5.82;4.00;;;;;;;10.39;46.84;101437.81;5056695;28;20384;-76
2022/11/25 08:51:30;;;;;;;8.85;4.65;;;;;;;10.41;47.05;101428.75;5060315;28;20735;-76
2022/11/25 08:53:56;;;;;;;8.57;4.68;;;;;;;10.59;46.68;101441.16;5054439;28;20921;-76
2022/11/25 08:56:23;;;;;;;6.57;3.88;;;;;;;10.59;45.93;101438.50;5058924;28;20417;-78
2022/11/25 08:58:49;;;;;;;6.30;3.83;;;;;;;10.38;46.18;101428.22;5057744;28;20380;-78
2022/11/25 09:01:17;;;;;;;6.13;4.15;;;;;;;10.55;45.85;101442.44;5064210;28;20386;-78
2022/11/25 09:03:46;;;;;;;6.87;4.00;;;;;;;10.57;45.46;101440.47;5057629;28;20936;-76
2022/11/25 09:06:13;;;;;;;6.20;3.53;;;;;;;10.58;45.55;101444.81;5061701;28;20446;-77
2022/11/25 09:08:40;;;;;;;6.35;3.42;;;;;;;10.42;46.03;101446.31;5053211;28;20929;-77
2022/11/25 09:11:06;;;;;;;6.38;3.60;;;;;;;10.58;45.71;101447.47;5047230;28;20421;-77
2022/11/25 09:13:32;;;;;;;7.07;4.67;;;;;;;10.63;45.67;101443.38;5063527;28;20546;-77
2022/11/25 09:15:58;;;;;;;7.28;4.28;;;;;;;10.56;45.75;101450.25;5053352;28;21213;-77
2022/11/25 09:18:25;;;;;;;7.27;5.03;;;;;;;10.30;46.95;101448.34;5054070;28;20761;-77
2022/11/25 09:20:52;;;;;;;7.70;4.35;;;;;;;10.33;46.59;101444.56;5052842;28;20386;-76
2022/11/25 09:23:19;;;;;;;7.63;4.07;;;;;;;10.41;46.30;101444.66;5048785;28;20385;-76
2022/11/25 09:25:57;;;;;;;11.10;5.47;;;;;;;10.77;45.30;101449.09;5035845;28;20409;-77
2022/11/25 09:28:25;;;;;;;8.63;5.23;;;;;;;11.03;44.94;101449.97;5047174;28;20453;-77
2022/11/25 09:30:51;;;;;;;6.55;3.95;;;;;;;10.96;44.98;101448.94;5051349;28;20373;-77
2022/11/25 09:33:18;;;;;;;5.47;3.75;;;;;;;10.90;44.74;101449.56;5051233;28;20440;-78
2022/11/25 09:35:44;;;;;;;6.43;4.03;;;;;;;10.81;44.80;101461.91;5056565;28;20377;-77
2022/11/25 09:38:09;;;;;;;6.97;4.80;;;;;;;11.01;44.53;101445.81;5047488;28;20420;-77
2022/11/25 09:40:46;;;;;;;5.97;4.07;;;;;;;10.81;44.79;101450.47;5049496;28;20885;-77
2022/11/25 09:46:40;;;;;;;6.70;4.20;;;;;;;10.80;45.48;101432.88;5062228;28;20513;-77
2022/11/25 09:49:27;;;;;;;7.13;4.45;;;;;;;11.23;45.56;101431.19;5065779;28;20384;-77
2022/11/25 09:52:11;;;;;;;7.13;4.55;;;;;;;11.18;44.95;101433.50;5068506;28;20374;-76
2022/11/25 09:54:41;;;;;;;5.63;4.05;;;;;;;10.95;44.51;101436.66;5068521;28;20364;-77
2022/11/25 09:57:41;;;;;;;7.60;4.80;;;;;;;11.18;44.00;101430.84;5057578;28;20380;-77
2022/11/25 10:00:29;;;;;;;7.85;4.00;;;;;;;10.96;44.44;101426.88;5052064;28;21086;-77
2022/11/25 10:03:17;;;;;;;7.35;4.05;;;;;;;10.88;45.30;101425.00;5051817;28;20423;-77
2022/11/25 10:05:57;;;;;;;6.75;4.15;;;;;;;11.00;44.19;101425.56;5052708;28;20507;-77
2022/11/25 10:08:28;;;;;;;6.35;4.20;;;;;;;11.01;43.68;101427.25;5033931;28;20388;-77
2022/11/25 10:11:17;;;;;;;6.50;4.32;;;;;;;11.05;44.32;101424.13;5052861;28;20393;-77
2022/11/25 10:14:15;;;;;;;6.90;3.97;;;;;;;10.90;43.87;101423.03;5049815;28;20404;-76
2022/11/25 10:16:57;;;;;;;6.28;4.50;;;;;;;10.92;43.93;101417.56;5014339;28;20388;-78
2022/11/25 10:19:45;;;;;;;6.93;4.70;;;;;;;11.16;44.08;101400.97;5052348;28;20503;-77
2022/11/25 10:22:21;;;;;;;6.78;4.57;;;;;;;11.13;43.32;101411.91;5040138;28;20385;-77
2022/11/25 10:24:48;;;;;;;7.45;4.07;;;;;;;10.78;44.02;101403.03;5051787;28;20404;-78
2022/11/25 10:27:45;;;;;;;6.68;4.53;;;;;;;11.02;44.04;101412.97;5053486;28;20397;-77
2022/11/25 10:30:18;;;;;;;5.35;3.47;;;;;;;10.83;43.81;101409.53;5046028;28;20446;-78
2022/11/25 10:32:49;;;;;;;7.95;4.45;;;;;;;10.98;44.11;101415.13;5031568;28;20372;-77
2022/11/25 10:35:23;;;;;;;6.97;4.00;;;;;;;11.29;43.08;101417.31;5053367;28;20476;-77
2022/11/25 10:37:54;;;;;;;7.83;4.30;;;;;;;11.37;43.29;101425.31;5039810;28;20393;-76
2022/11/25 10:40:20;;;;;;;6.25;3.92;;;;;;;10.93;43.53;101430.69;5041117;28;20398;-77
2022/11/25 10:42:45;;;;;;;7.63;4.03;;;;;;;10.82;43.87;101420.31;5030391;28;20899;-76
2022/11/25 10:45:11;;;;;;;6.97;4.40;;;;;;;11.00;43.71;101430.88;5045120;28;20558;-76
2022/11/25 10:47:48;;;;;;;4.77;3.20;;;;;;;10.83;43.34;101409.53;5051440;28;20403;-78
2022/11/25 10:50:16;;;;;;;6.28;4.15;;;;;;;11.20;43.89;101424.41;5049939;28;20458;-76
2022/11/25 10:52:48;;;;;;;6.45;4.43;;;;;;;11.43;43.27;101418.53;5064599;28;20380;-77
2022/11/25 10:55:22;;;;;;;6.50;3.70;;;;;;;11.18;43.00;101430.84;5056310;28;20891;-77
2022/11/25 10:57:48;;;;;;;5.83;3.67;;;;;;;10.74;43.76;101422.91;5059796;28;20386;-76
2022/11/25 11:00:32;;;;;;;7.20;3.80;;;;;;;11.04;43.71;101419.00;5071635;28;20365;-77
2022/11/25 11:03:13;;;;;;;6.35;4.15;;;;;;;11.05;43.36;101428.59;5068678;28;20401;-77
2022/11/25 11:05:47;;;;;;;6.03;4.10;;;;;;;11.14;42.94;101410.91;5035171;28;20416;-76
2022/11/25 11:08:18;;;;;;;5.60;3.63;;;;;;;11.02;43.38;101413.84;5053086;28;20384;-77
2022/11/25 11:10:44;;;;;;;5.47;3.88;;;;;;;11.03;43.14;101415.47;5053832;28;20729;-77
2022/11/25 11:13:32;;;;;;;7.10;4.68;;;;;;;11.26;43.22;101420.28;5035675;28;20369;-76
2022/11/25 11:15:57;;;;;;;5.85;4.07;;;;;;;11.07;43.42;101416.84;5034906;28;20373;-76
2022/11/25 11:18:26;;;;;;;5.75;3.92;;;;;;;10.95;43.35;101418.09;5052786;28;20391;-78
2022/11/25 11:20:58;;;;;;;6.53;4.03;;;;;;;11.32;43.11;101410.84;5048860;28;20366;-76
2022/11/25 11:23:26;;;;;;;5.20;3.30;;;;;;;11.29;43.24;101425.28;5054847;28;20368;-77
2022/11/25 11:25:58;;;;;;;7.18;3.80;;;;;;;11.09;43.29;101414.88;5056596;28;20441;-76
2022/11/25 11:28:35;;;;;;;6.22;3.30;;;;;;;11.21;42.79;101420.75;5054166;28;20448;-76
2022/11/25 11:31:07;;;;;;;7.60;4.00;;;;;;;11.32;42.88;101413.50;5034929;28;20449;-77
2022/11/25 11:33:40;;;;;;;4.90;3.33;;;;;;;11.04;42.96;101409.19;5028332;28;20400;-78
2022/11/25 11:36:38;;;;;;;6.68;3.92;;;;;;;11.22;43.07;101411.81;5055225;28;20380;-77
2022/11/25 11:39:22;;;;;;;5.60;3.13;;;;;;;11.51;42.46;101396.53;5048067;28;20382;-77
2022/11/25 11:42:10;;;;;;;5.90;4.07;;;;;;;11.46;42.04;101407.63;5040235;28;20442;-77
2022/11/25 11:45:14;;;;;;;8.13;7.32;;;;;;;11.41;42.31;101402.75;5053379;28;20474;-78